createdAt,value
2022-08-10T00:00:12.323Z,25.19
2022-08-10T00:02:39.000Z,25.19
2022-08-10T00:05:06.213Z,25.24
2022-08-10T00:07:32.937Z,25.08
2022-08-10T00:09:59.636Z,25.41
2022-08-10T00:12:53.669Z,25.14
2022-08-10T00:15:52.685Z,25.13
2022-08-10T00:18:02.271Z,25.21
2022-08-10T00:20:29.047Z,25.28
2022-08-10T00:22:57.794Z,25.21
2022-08-10T00:25:24.931Z,25.39
2022-08-10T00:28:03.139Z,25.53
2022-08-10T00:30:31.116Z,25.22
2022-08-10T00:33:00.923Z,25.77
2022-08-10T00:35:27.995Z,25.25
2022-08-10T00:37:57.923Z,25.66
2022-08-10T00:40:35.158Z,26.06
2022-08-10T00:43:08.031Z,25.62
2022-08-10T00:45:35.834Z,25.92
2022-08-10T00:48:02.723Z,25.97
2022-08-10T00:50:29.726Z,26.20
2022-08-10T00:52:56.706Z,25.99
2022-08-10T00:55:23.466Z,25.94
2022-08-10T00:57:54.866Z,25.80
2022-08-10T01:00:21.783Z,26.13
2022-08-10T01:02:48.525Z,26.05
2022-08-10T01:05:15.436Z,26.18
2022-08-10T01:08:10.470Z,26.10
2022-08-10T01:10:52.557Z,26.59
2022-08-10T01:13:47.842Z,26.70
2022-08-10T01:16:45.757Z,26.70
2022-08-10T01:19:40.663Z,26.52
2022-08-10T01:22:19.453Z,26.63
2022-08-10T01:25:09.385Z,27.01
2022-08-10T01:28:00.446Z,27.09
2022-08-10T01:30:31.710Z,27.10
2022-08-10T01:33:07.987Z,27.32
2022-08-10T01:35:41.391Z,27.49
2022-08-10T01:38:20.608Z,27.46
2022-08-10T01:40:53.828Z,27.66
2022-08-10T01:43:21.357Z,28.07
2022-08-10T01:45:53.391Z,27.71
2022-08-10T01:48:32.241Z,27.87
2022-08-10T01:50:59.406Z,27.89
2022-08-10T01:53:39.996Z,28.37
2022-08-10T01:56:14.103Z,28.47
2022-08-10T01:58:42.429Z,28.28
2022-08-10T02:01:16.995Z,28.96
2022-08-10T02:04:03.862Z,29.41
2022-08-10T02:06:42.041Z,29.53
2022-08-10T02:09:11.683Z,29.94
2022-08-10T02:12:05.702Z,30.16
2022-08-10T02:14:33.584Z,29.79
2022-08-10T02:17:09.353Z,29.96
2022-08-10T02:20:01.653Z,29.99
2022-08-10T02:22:37.854Z,30.17
2022-08-10T02:25:07.985Z,30.51
2022-08-10T02:27:36.031Z,30.29
2022-08-10T02:30:04.969Z,30.46
2022-08-10T02:32:52.854Z,30.43
2022-08-10T02:35:22.214Z,31.12
2022-08-10T02:37:53.410Z,30.72
2022-08-10T02:45:01.476Z,31.18
2022-08-10T02:45:24.708Z,31.56
2022-08-10T02:46:13.135Z,31.23
2022-08-10T02:48:46.044Z,31.94
2022-08-10T02:51:20.048Z,32.44
2022-08-10T02:54:13.753Z,32.27
2022-08-10T02:56:46.408Z,32.25
2022-08-10T02:59:40.151Z,32.65
2022-08-10T03:02:10.608Z,33.31
2022-08-10T03:04:55.602Z,33.26
2022-08-10T03:07:43.598Z,32.99
2022-08-10T03:10:16.662Z,33.39
2022-08-10T03:12:45.632Z,33.32
2022-08-10T03:15:15.941Z,32.98
2022-08-10T03:17:58.248Z,33.01
2022-08-10T03:20:36.774Z,33.12
2022-08-10T03:23:11.305Z,33.51
2022-08-10T03:25:39.113Z,33.57
2022-08-10T03:28:07.239Z,33.35
2022-08-10T03:30:35.163Z,33.45
2022-08-10T03:33:07.405Z,33.54
2022-08-10T03:35:34.706Z,33.71
2022-08-10T03:38:01.800Z,33.82
2022-08-10T03:40:45.465Z,33.65
2022-08-10T03:43:21.252Z,34.24
2022-08-10T03:45:58.181Z,34.29
2022-08-10T03:48:32.139Z,33.92
2022-08-10T03:51:12.953Z,34.27
2022-08-10T03:54:05.093Z,34.29
2022-08-10T03:56:31.926Z,34.20
2022-08-10T03:59:00.256Z,34.30
2022-08-10T04:02:45.388Z,34.26
2022-08-10T04:04:19.286Z,34.34
2022-08-10T04:06:54.522Z,34.15
2022-08-10T04:09:23.522Z,33.99
2022-08-10T04:11:50.338Z,34.15
2022-08-10T04:14:47.098Z,34.53
2022-08-10T04:17:03.779Z,34.70
2022-08-10T04:19:43.214Z,34.97
2022-08-10T04:22:20.939Z,34.73
2022-08-10T04:24:51.560Z,34.97
2022-08-10T04:27:18.278Z,34.29
2022-08-10T04:29:45.349Z,35.36
2022-08-10T04:32:15.861Z,35.20
2022-08-10T04:34:44.846Z,35.23
2022-08-10T04:37:13.708Z,35.28
2022-08-10T04:39:40.698Z,35.31
2022-08-10T04:42:07.709Z,34.98
2022-08-10T04:44:34.606Z,35.37
2022-08-10T04:47:01.293Z,35.39
2022-08-10T04:49:52.161Z,35.10
2022-08-10T04:52:14.914Z,35.30
2022-08-10T04:54:41.747Z,34.96
2022-08-10T04:57:08.877Z,35.42
2022-08-10T04:59:35.834Z,35.42
2022-08-10T05:02:28.218Z,35.02
2022-08-10T05:04:49.356Z,35.08
2022-08-10T05:07:18.447Z,35.14
2022-08-10T05:10:01.132Z,34.79
2022-08-10T05:12:39.279Z,34.65
2022-08-10T05:15:11.697Z,35.16
2022-08-10T05:17:39.700Z,34.71
2022-08-10T05:20:09.149Z,35.23
2022-08-10T05:22:38.179Z,35.21
2022-08-10T05:25:06.939Z,34.98
2022-08-10T05:27:34.126Z,34.81
2022-08-10T05:30:02.846Z,34.88
2022-08-10T05:32:56.462Z,34.52
2022-08-10T05:35:21.935Z,34.55
2022-08-10T05:38:11.818Z,34.56
2022-08-10T05:40:39.312Z,34.57
2022-08-10T05:43:06.958Z,34.40
2022-08-10T05:45:33.978Z,34.35
2022-08-10T05:48:54.256Z,33.99
2022-08-10T05:51:09.289Z,33.84
2022-08-10T05:53:59.688Z,34.11
2022-08-10T05:56:25.987Z,33.95
2022-08-10T05:58:52.889Z,34.25
2022-08-10T06:01:24.899Z,33.97
2022-08-10T06:03:58.443Z,33.86
2022-08-10T06:06:27.773Z,33.81
2022-08-10T06:08:56.574Z,33.82
2022-08-10T06:12:28.685Z,33.64
2022-08-10T06:14:31.871Z,33.40
2022-08-10T06:16:58.730Z,32.97
2022-08-10T06:19:26.470Z,33.20
2022-08-10T06:22:00.586Z,32.64
2022-08-10T06:24:31.167Z,31.92
2022-08-10T06:26:59.369Z,31.34
2022-08-10T06:29:29.618Z,30.53
2022-08-10T06:31:57.349Z,30.80
2022-08-10T06:34:32.188Z,30.37
2022-08-10T06:37:01.635Z,29.98
2022-08-10T06:39:36.586Z,30.81
2022-08-10T06:42:15.802Z,30.95
2022-08-10T06:45:01.953Z,30.82
2022-08-10T06:47:35.331Z,30.87
2022-08-10T06:50:10.535Z,30.70
2022-08-10T06:52:40.113Z,31.04
2022-08-10T06:55:12.471Z,31.11
2022-08-10T06:57:44.661Z,31.21
2022-08-10T07:00:34.200Z,31.34
2022-08-10T07:03:07.231Z,31.21
2022-08-10T07:05:40.518Z,31.14
2022-08-10T07:08:11.097Z,31.01
2022-08-10T07:10:45.703Z,31.05
2022-08-10T07:13:16.144Z,31.11
2022-08-10T07:16:03.956Z,31.47
2022-08-10T07:18:32.501Z,31.19
2022-08-10T07:21:02.004Z,31.44
2022-08-10T07:23:57.350Z,31.53
2022-08-10T07:26:17.857Z,31.46
2022-08-10T07:28:48.080Z,31.52
2022-08-10T07:31:54.861Z,30.87
2022-08-10T07:34:09.383Z,30.36
2022-08-10T07:36:37.889Z,30.70
2022-08-10T07:39:05.975Z,30.65
2022-08-10T07:41:34.824Z,29.54
2022-08-10T07:44:04.328Z,29.27
2022-08-10T07:46:33.425Z,28.62
2022-08-10T07:49:16.771Z,28.41
2022-08-10T07:51:54.565Z,27.86
2022-08-10T07:54:24.365Z,27.73
2022-08-10T07:56:53.772Z,27.60
2022-08-10T07:59:29.506Z,27.34
2022-08-10T08:01:58.199Z,26.87
2022-08-10T08:04:26.031Z,26.85
2022-08-10T08:06:53.871Z,26.99
2022-08-10T08:09:22.089Z,26.52
2022-08-10T08:11:50.725Z,26.00
2022-08-10T08:14:22.196Z,25.78
2022-08-10T08:16:52.127Z,24.65
2022-08-10T08:19:28.228Z,19.74
2022-08-10T08:24:10.887Z,15.71
2022-08-10T08:24:52.074Z,12.55
2022-08-10T08:27:20.302Z,11.65
2022-08-10T08:29:49.432Z,11.08
2022-08-10T08:32:17.621Z,9.85
2022-08-10T08:34:46.167Z,8.81
2022-08-10T08:38:28.868Z,8.89
2022-08-10T08:40:33.462Z,8.90
2022-08-10T08:43:21.423Z,7.99
2022-08-10T08:46:28.417Z,7.42
2022-08-10T08:49:08.647Z,8.03
2022-08-10T08:52:07.903Z,7.48
2022-08-10T08:56:03.842Z,7.41
2022-08-10T08:58:26.400Z,7.40
2022-08-10T09:01:13.458Z,6.83
2022-08-10T09:03:43.071Z,6.70
2022-08-10T09:06:47.073Z,5.69
2022-08-10T09:09:41.722Z,6.09
2022-08-10T09:12:34.026Z,5.58
2022-08-10T09:15:08.343Z,6.01
2022-08-10T09:18:01.493Z,5.77
2022-08-10T09:20:46.479Z,5.66
2022-08-10T09:24:05.325Z,4.90
2022-08-10T09:26:22.059Z,4.20
2022-08-10T09:29:12.840Z,5.39
2022-08-10T09:33:05.330Z,5.30
2022-08-10T09:36:24.404Z,6.65
2022-08-10T09:38:10.501Z,5.67
2022-08-10T09:41:00.368Z,4.73
2022-08-10T09:43:38.671Z,4.83
2022-08-10T09:46:12.024Z,5.92
2022-08-10T09:48:54.648Z,5.72
2022-08-10T09:51:47.378Z,4.72
2022-08-10T09:54:52.106Z,5.06
2022-08-10T09:57:50.835Z,4.50
2022-08-10T10:00:24.835Z,3.44
2022-08-10T10:03:29.058Z,4.22
2022-08-10T10:06:19.111Z,3.74
2022-08-10T10:09:10.156Z,3.52
2022-08-10T10:12:09.703Z,4.39
2022-08-10T10:15:24.202Z,5.54
2022-08-10T10:18:07.731Z,4.87
2022-08-10T10:20:53.714Z,4.02
2022-08-10T10:23:29.179Z,4.10
2022-08-10T10:26:18.480Z,3.69
2022-08-10T10:29:30.603Z,5.03
2022-08-10T10:31:57.399Z,4.76
2022-08-10T10:34:27.127Z,3.57
2022-08-10T10:36:54.392Z,3.80
2022-08-10T10:39:25.855Z,3.31
2022-08-10T10:42:05.101Z,2.54
2022-08-10T10:44:42.085Z,2.38
2022-08-10T10:47:35.033Z,2.46
2022-08-10T10:50:05.922Z,2.20
2022-08-10T10:52:43.131Z,2.17
2022-08-10T10:55:23.196Z,2.34
2022-08-10T10:58:04.939Z,2.25
2022-08-10T11:00:42.215Z,2.33
2022-08-10T11:03:21.429Z,2.84
2022-08-10T11:06:09.660Z,2.75
2022-08-10T11:08:38.678Z,1.95
2022-08-10T11:12:00.459Z,2.29
2022-08-10T11:14:29.191Z,1.77
2022-08-10T11:17:08.578Z,1.80
2022-08-10T11:20:05.013Z,1.51
2022-08-10T11:23:05.018Z,2.22
2022-08-10T11:25:36.322Z,2.05
2022-08-10T11:28:22.199Z,2.61
2022-08-10T11:30:54.935Z,2.54
2022-08-10T11:33:33.700Z,2.83
2022-08-10T11:36:40.433Z,3.37
2022-08-10T11:39:24.861Z,3.48
2022-08-10T11:42:08.930Z,3.61
2022-08-10T11:45:00.075Z,3.67
2022-08-10T11:47:46.453Z,3.08
2022-08-10T11:50:22.723Z,2.93
2022-08-10T11:53:00.109Z,2.44
2022-08-10T11:55:31.287Z,2.26
2022-08-10T11:58:29.808Z,2.58
2022-08-10T12:00:59.644Z,2.82
2022-08-10T12:03:32.650Z,3.06
2022-08-10T12:06:04.384Z,3.14
2022-08-10T12:10:11.623Z,3.18
2022-08-10T12:11:24.490Z,3.41
2022-08-10T12:14:22.524Z,3.38
2022-08-10T12:16:55.167Z,3.42
2022-08-10T12:20:01.689Z,4.12
2022-08-10T12:22:30.957Z,5.72
2022-08-10T12:25:03.217Z,8.63
2022-08-10T12:27:38.677Z,9.88
2022-08-10T12:30:08.893Z,10.06
2022-08-10T12:32:56.653Z,10.29
2022-08-10T12:36:15.002Z,10.98
2022-08-10T12:38:49.547Z,11.64
2022-08-10T12:41:43.904Z,11.67
2022-08-10T12:44:41.076Z,11.83
2022-08-10T12:47:32.505Z,12.00
2022-08-10T12:50:30.988Z,12.03
2022-08-10T12:53:15.123Z,12.24
2022-08-10T12:55:43.993Z,12.40
2022-08-10T12:59:00.304Z,12.85
2022-08-10T13:01:16.087Z,13.08
2022-08-10T13:04:23.258Z,13.19
2022-08-10T13:06:36.191Z,12.97
2022-08-10T13:09:09.415Z,13.65
2022-08-10T13:12:38.366Z,13.40
2022-08-10T13:15:28.274Z,13.07
2022-08-10T13:18:03.711Z,13.27
2022-08-10T13:20:35.395Z,12.58
2022-08-10T13:23:11.336Z,13.26
2022-08-10T13:25:40.529Z,12.85
2022-08-10T13:28:35.453Z,12.89
2022-08-10T13:31:03.359Z,12.69
2022-08-10T13:34:40.999Z,13.62
2022-08-10T13:36:28.765Z,13.53
2022-08-10T13:38:57.325Z,13.60
2022-08-10T13:41:39.169Z,13.66
2022-08-10T13:44:08.240Z,13.24
2022-08-10T13:46:40.102Z,13.07
2022-08-10T13:49:09.936Z,13.08
2022-08-10T13:51:54.305Z,13.35
2022-08-10T13:54:36.987Z,13.46
2022-08-10T13:57:07.463Z,13.52
2022-08-10T14:00:35.009Z,13.84
2022-08-10T14:02:28.670Z,13.51
2022-08-10T14:04:57.819Z,13.39
2022-08-10T14:07:26.690Z,13.16
2022-08-10T14:09:59.356Z,13.21
2022-08-10T14:12:33.518Z,13.28
2022-08-10T14:15:03.131Z,12.87
2022-08-10T14:17:31.429Z,12.77
2022-08-10T14:20:00.188Z,13.03
2022-08-10T14:22:35.748Z,13.16
2022-08-10T14:25:11.413Z,13.10
2022-08-10T14:28:02.855Z,13.00
2022-08-10T14:30:33.065Z,13.16
2022-08-10T14:33:04.498Z,13.14
2022-08-10T14:36:19.050Z,12.89
2022-08-10T14:38:28.123Z,12.81
2022-08-10T14:40:58.783Z,12.73
2022-08-10T14:43:29.213Z,12.75
2022-08-10T14:46:05.817Z,13.18
2022-08-10T14:48:39.799Z,13.36
2022-08-10T14:51:09.277Z,13.60
2022-08-10T14:53:38.322Z,14.04
2022-08-10T14:56:09.359Z,13.99
2022-08-10T14:59:05.648Z,13.54
2022-08-10T15:02:01.315Z,13.89
2022-08-10T15:04:24.787Z,13.87
2022-08-10T15:06:57.530Z,14.15
2022-08-10T15:09:28.084Z,13.80
2022-08-10T15:12:19.530Z,14.35
2022-08-10T15:14:58.068Z,14.72
2022-08-10T15:17:29.863Z,14.66
2022-08-10T15:20:13.457Z,13.30
2022-08-10T15:22:50.189Z,13.00
2022-08-10T15:25:25.084Z,13.31
2022-08-10T15:28:10.336Z,12.99
2022-08-10T15:31:00.280Z,13.58
2022-08-10T15:33:57.580Z,13.32
2022-08-10T15:37:36.119Z,13.18
2022-08-10T15:40:25.914Z,13.38
2022-08-10T15:42:34.145Z,13.07
2022-08-10T15:45:01.231Z,13.06
2022-08-10T15:47:46.237Z,13.36
2022-08-10T15:50:23.501Z,13.89
2022-08-10T15:53:02.095Z,14.02
2022-08-10T15:55:46.892Z,13.87
2022-08-10T15:58:38.783Z,14.05
2022-08-10T16:02:14.907Z,13.65
2022-08-10T16:04:19.875Z,13.92
2022-08-10T16:06:58.601Z,13.87
2022-08-10T16:10:24.577Z,14.00
2022-08-10T16:12:32.594Z,13.96
2022-08-10T16:15:07.927Z,13.87
2022-08-10T16:17:55.269Z,14.22
2022-08-10T16:20:31.557Z,13.79
2022-08-10T16:23:02.258Z,14.16
2022-08-10T16:25:44.572Z,13.92
2022-08-10T16:28:23.326Z,13.92
2022-08-10T16:30:55.839Z,13.94
2022-08-10T16:33:27.582Z,13.78
2022-08-10T16:36:17.047Z,13.93
2022-08-10T16:38:45.805Z,14.54
2022-08-10T16:42:02.094Z,13.98
2022-08-10T16:44:02.267Z,14.54
2022-08-10T16:46:30.238Z,14.51
2022-08-10T16:48:59.367Z,14.54
2022-08-10T16:51:26.404Z,14.97
2022-08-10T16:53:54.052Z,14.74
2022-08-10T16:56:34.217Z,14.79
2022-08-10T16:59:20.804Z,14.96
2022-08-10T17:01:53.669Z,14.91
2022-08-10T17:04:22.650Z,14.80
2022-08-10T17:06:56.427Z,15.49
2022-08-10T17:09:30.114Z,15.55
2022-08-10T17:11:59.355Z,15.46
2022-08-10T17:14:28.901Z,15.60
2022-08-10T17:17:06.544Z,15.81
2022-08-10T17:19:45.119Z,15.42
2022-08-10T17:22:17.929Z,15.64
2022-08-10T17:24:49.974Z,15.85
2022-08-10T17:28:04.481Z,16.10
2022-08-10T17:30:15.844Z,15.71
2022-08-10T17:32:57.156Z,16.20
2022-08-10T17:35:28.713Z,15.69
2022-08-10T17:38:12.583Z,16.50
2022-08-10T17:40:55.160Z,16.75
2022-08-10T17:43:57.768Z,16.65
2022-08-10T17:46:13.254Z,16.42
2022-08-10T17:48:44.363Z,15.83
2022-08-10T17:51:13.893Z,15.94
2022-08-10T17:54:00.487Z,16.11
2022-08-10T17:56:31.472Z,16.85
2022-08-10T17:59:02.620Z,16.66
2022-08-10T18:01:41.378Z,17.05
2022-08-10T18:04:22.401Z,16.46
2022-08-10T18:06:54.530Z,16.29
2022-08-10T18:09:47.119Z,17.13
2022-08-10T18:12:19.109Z,17.06
2022-08-10T18:14:50.096Z,17.07
2022-08-10T18:17:23.100Z,16.33
2022-08-10T18:20:00.405Z,16.71
2022-08-10T18:22:29.066Z,16.71
2022-08-10T18:24:58.894Z,16.78
2022-08-10T18:28:04.327Z,17.29
2022-08-10T18:30:19.171Z,17.07
2022-08-10T18:32:50.170Z,17.26
2022-08-10T18:35:18.798Z,17.53
2022-08-10T18:37:50.645Z,17.28
2022-08-10T18:40:18.689Z,17.49
2022-08-10T18:42:51.052Z,17.36
2022-08-10T18:45:33.504Z,17.18
2022-08-10T18:48:16.301Z,17.65
2022-08-10T18:50:49.706Z,17.17
2022-08-10T18:53:33.197Z,17.46
2022-08-10T18:56:28.328Z,17.35
2022-08-10T18:59:05.176Z,17.75
2022-08-10T19:01:55.619Z,17.99
2022-08-10T19:04:40.088Z,18.29
2022-08-10T19:07:34.853Z,17.95
2022-08-10T19:10:26.756Z,18.50
2022-08-10T19:13:07.123Z,18.24
2022-08-10T19:15:51.789Z,18.38
2022-08-10T19:18:37.199Z,18.69
2022-08-10T19:21:13.131Z,18.95
2022-08-10T19:23:59.111Z,18.98
2022-08-10T19:26:45.029Z,18.18
2022-08-10T19:30:10.270Z,18.67
2022-08-10T19:32:36.171Z,19.21
2022-08-10T19:35:29.466Z,18.45
2022-08-10T19:38:24.905Z,19.21
2022-08-10T19:41:09.331Z,18.76
2022-08-10T19:44:00.844Z,19.36
2022-08-10T19:46:47.298Z,19.63
2022-08-10T19:49:41.452Z,19.20
2022-08-10T19:52:25.536Z,19.53
2022-08-10T19:55:21.623Z,19.62
2022-08-10T19:58:07.094Z,20.01
2022-08-10T20:00:56.065Z,19.77
2022-08-10T20:03:52.776Z,19.94
2022-08-10T20:06:39.856Z,19.56
2022-08-10T20:09:30.154Z,19.67
2022-08-10T20:12:02.149Z,20.06
2022-08-10T20:15:07.422Z,19.51
2022-08-10T20:17:51.549Z,20.44
2022-08-10T20:20:30.672Z,20.15
2022-08-10T20:23:22.932Z,20.49
2022-08-10T20:25:57.742Z,20.67
2022-08-10T20:29:16.482Z,20.65
2022-08-10T20:32:17.584Z,20.56
2022-08-10T20:35:04.594Z,21.24
2022-08-10T20:37:41.187Z,20.55
2022-08-10T20:40:46.961Z,20.94
2022-08-10T20:43:17.113Z,21.50
2022-08-10T20:46:07.831Z,21.66
2022-08-10T20:48:40.903Z,21.23
2022-08-10T20:51:13.957Z,21.47
2022-08-10T20:53:49.499Z,22.09
2022-08-10T20:56:48.294Z,21.86
2022-08-10T20:59:23.502Z,21.93
2022-08-10T21:02:28.123Z,22.64
2022-08-10T21:05:19.168Z,21.97
2022-08-10T21:08:03.674Z,22.61
2022-08-10T21:11:02.302Z,22.57
2022-08-10T21:14:01.725Z,22.70
2022-08-10T21:16:28.320Z,22.42
2022-08-10T21:19:18.496Z,22.84
2022-08-10T21:22:15.728Z,22.39
2022-08-10T21:24:52.221Z,22.98
2022-08-10T21:27:56.491Z,23.63
2022-08-10T21:31:00.146Z,23.38
2022-08-10T21:33:38.563Z,23.25
2022-08-10T21:36:37.518Z,23.28
2022-08-10T21:39:42.966Z,23.40
2022-08-10T21:42:47.334Z,23.57
2022-08-10T21:46:04.249Z,23.98
2022-08-10T21:49:06.750Z,23.70
2022-08-10T21:52:04.169Z,24.02
2022-08-10T21:55:06.354Z,24.11
2022-08-10T21:58:16.221Z,23.43
2022-08-10T22:01:13.072Z,24.05
2022-08-10T22:04:02.147Z,24.09
2022-08-10T22:06:53.019Z,23.44
2022-08-10T22:09:45.943Z,23.90
2022-08-10T22:12:34.233Z,23.54
2022-08-10T22:16:03.323Z,23.58
2022-08-10T22:18:58.771Z,23.69
2022-08-10T22:21:59.216Z,24.03
2022-08-10T22:25:05.685Z,23.75
2022-08-10T22:28:02.931Z,23.73
2022-08-10T22:31:28.681Z,24.14
2022-08-10T22:34:38.248Z,24.07
2022-08-10T22:37:40.488Z,23.89
2022-08-10T22:40:32.242Z,24.38
2022-08-10T22:43:35.523Z,24.06
2022-08-10T22:46:25.605Z,24.40
2022-08-10T22:49:01.489Z,24.51
2022-08-10T22:51:49.918Z,24.06
2022-08-10T22:54:44.480Z,24.12
2022-08-10T22:57:34.188Z,24.50
2022-08-10T23:00:16.245Z,24.17
2022-08-10T23:02:57.396Z,24.17
2022-08-10T23:05:56.172Z,24.42
2022-08-10T23:08:31.246Z,24.56
2022-08-10T23:11:05.990Z,24.43
2022-08-10T23:13:37.817Z,24.38
2022-08-10T23:16:27.293Z,24.29
2022-08-10T23:19:11.034Z,24.69
2022-08-10T23:21:47.791Z,24.45
2022-08-10T23:24:35.237Z,24.86
2022-08-10T23:27:10.353Z,24.79
2022-08-10T23:30:03.539Z,24.56
2022-08-10T23:32:33.335Z,24.61
2022-08-10T23:36:30.313Z,24.93
2022-08-10T23:37:58.139Z,24.84
2022-08-10T23:40:26.738Z,24.97
2022-08-10T23:42:55.657Z,24.72
2022-08-10T23:45:25.167Z,24.94
2022-08-10T23:47:53.906Z,24.87
2022-08-10T23:50:23.335Z,24.86
2022-08-10T23:52:52.702Z,25.28
2022-08-10T23:55:24.150Z,24.85
2022-08-10T23:58:05.089Z,25.41
